Terminal Aerodrome Forecast
Issued by NWS Wakefield, VA

Home | Current Version | Previous Version | Text Only | Print | Product List | Glossary On
Versions: 1 2 3 4 5 6 7 8 9 10 11 12 13 14 15 16 17 18 19 20 21 22 23 24 25
919
FTUS41 KAKQ 292025 AAC
TAFORF
TAF AMD
KORF 292025Z 2920/3018 08009KT P6SM VCSH BKN010 OVC016
      TEMPO 2920/2923 4SM -RA BR OVC008
     FM300000 10009KT 4SM -SHRA OVC070
     FM300700 10004KT P6SM BKN070
     FM301400 10003KT P6SM BKN035=

USA.gov is the U.S. government's official web portal to all federal, state and local government web resources and services.